createdAt,value
2019-04-05T00:01:11.430Z,99549.29
2019-04-05T00:03:38.905Z,99550.85
2019-04-05T00:06:06.018Z,99546.43
2019-04-05T00:08:33.223Z,99543.95
2019-04-05T00:11:00.405Z,99543.22
2019-04-05T00:13:27.649Z,99533.36
2019-04-05T00:15:54.939Z,99532.89
2019-04-05T00:18:22.216Z,99532.55
2019-04-05T00:20:49.281Z,99528.61
2019-04-05T00:23:16.520Z,99534.20
2019-04-05T00:25:43.728Z,99535.25
2019-04-05T00:28:10.956Z,99541.34
2019-04-05T00:30:38.145Z,99532.98
2019-04-05T00:33:05.226Z,99528.95
2019-04-05T00:35:32.609Z,99522.29
2019-04-05T00:37:59.717Z,99519.78
2019-04-05T00:40:26.897Z,99518.02
2019-04-05T00:42:54.090Z,99523.70
2019-04-05T00:45:28.149Z,99525.13
2019-04-05T00:47:50.407Z,99525.73
2019-04-05T00:50:17.587Z,99527.05
2019-04-05T00:52:44.757Z,99523.97
2019-04-05T00:55:12.156Z,99526.94
2019-04-05T00:57:39.301Z,99535.36
2019-04-05T01:00:07.312Z,99537.27
2019-04-05T01:02:34.517Z,99545.48
2019-04-05T01:05:01.631Z,99553.94
2019-04-05T01:07:28.822Z,99560.63
2019-04-05T01:09:56.231Z,99565.86
2019-04-05T01:12:23.502Z,99565.72
2019-04-05T01:14:52.000Z,99566.32
2019-04-05T01:17:24.716Z,99566.08
2019-04-05T01:19:49.755Z,99562.05
2019-04-05T01:22:18.347Z,99556.34
2019-04-05T01:24:45.529Z,99550.25
2019-04-05T01:27:13.203Z,99540.88
2019-04-05T01:29:41.845Z,99542.53
2019-04-05T01:32:09.069Z,99532.88
2019-04-05T01:34:36.256Z,99534.08
2019-04-05T01:37:03.564Z,99531.23
2019-04-05T01:39:30.817Z,99538.83
2019-04-05T01:41:58.355Z,99534.30
2019-04-05T01:44:25.878Z,99529.54
2019-04-05T01:46:53.065Z,99532.50
2019-04-05T01:49:20.273Z,99529.54
2019-04-05T01:51:47.542Z,99529.89
2019-04-05T01:54:14.681Z,99526.80
2019-04-05T01:56:42.219Z,99519.91
2019-04-05T01:59:09.493Z,99511.93
2019-04-05T02:01:36.952Z,99512.30
2019-04-05T02:04:04.116Z,99506.23
2019-04-05T02:06:31.416Z,99511.72
2019-04-05T02:08:58.686Z,99515.88
2019-04-05T02:11:26.226Z,99514.91
2019-04-05T02:13:53.751Z,99517.08
2019-04-05T02:16:21.752Z,99514.44
2019-04-05T02:18:48.986Z,99527.52
2019-04-05T02:21:16.179Z,99528.72
2019-04-05T02:23:43.366Z,99533.26
2019-04-05T02:26:11.138Z,99532.67
2019-04-05T02:28:39.133Z,99530.86
2019-04-05T02:31:07.141Z,99526.58
2019-04-05T02:33:34.523Z,99527.64
2019-04-05T02:36:02.401Z,99523.86
2019-04-05T02:38:29.661Z,99527.78
2019-04-05T02:40:58.787Z,99521.70
2019-04-05T02:43:29.961Z,99517.66
2019-04-05T02:45:57.532Z,99522.78
2019-04-05T02:48:27.808Z,99514.45
2019-04-05T02:50:58.736Z,99519.19
2019-04-05T02:53:26.603Z,99525.16
2019-04-05T02:55:55.100Z,99519.93
2019-04-05T02:58:24.025Z,99523.86
2019-04-05T03:00:52.817Z,99536.81
2019-04-05T03:03:21.443Z,99539.09
2019-04-05T03:05:48.710Z,99544.55
2019-04-05T03:08:16.782Z,99541.47
2019-04-05T03:11:03.329Z,99546.95
2019-04-05T03:13:34.441Z,99558.36
2019-04-05T03:16:06.295Z,99572.03
2019-04-05T03:18:38.059Z,99563.22
2019-04-05T03:21:07.344Z,99555.37
2019-04-05T03:23:38.026Z,99555.72
2019-04-05T03:26:08.114Z,99543.48
2019-04-05T03:28:38.521Z,99540.86
2019-04-05T03:31:05.973Z,99534.92
2019-04-05T03:33:34.604Z,99531.45
2019-04-05T03:36:02.324Z,99535.03
2019-04-05T03:38:30.597Z,99535.64
2019-04-05T03:40:58.209Z,99542.53
2019-04-05T03:43:25.557Z,99551.68
2019-04-05T03:45:53.672Z,99549.19
2019-04-05T03:48:21.144Z,99553.58
2019-04-05T03:51:20.813Z,99558.82
2019-04-05T03:53:48.579Z,99570.86
2019-04-05T03:56:19.628Z,99584.54
2019-04-05T03:58:46.988Z,99587.63
2019-04-05T04:01:14.282Z,99592.86
2019-04-05T04:03:41.740Z,99589.89
2019-04-05T04:06:09.451Z,99593.22
2019-04-05T04:08:36.839Z,99596.89
2019-04-05T04:11:08.108Z,99600.12
2019-04-05T04:13:40.520Z,99603.58
2019-04-05T04:16:09.959Z,99609.17
2019-04-05T04:18:38.878Z,99598.70
2019-04-05T04:21:32.847Z,99599.75
2019-04-05T04:24:03.327Z,99590.02
2019-04-05T04:26:32.130Z,99582.03
2019-04-05T04:28:59.412Z,99583.45
2019-04-05T04:31:27.010Z,99580.59
2019-04-05T04:33:54.897Z,99575.85
2019-04-05T04:36:23.404Z,99565.38
2019-04-05T04:38:50.839Z,99556.82
2019-04-05T04:41:19.750Z,99559.44
2019-04-05T04:43:47.400Z,99561.10
2019-04-05T04:46:15.741Z,99564.67
2019-04-05T04:48:44.050Z,99563.83
2019-04-05T04:51:12.006Z,99567.41
2019-04-05T04:53:39.665Z,99568.11
2019-04-05T04:56:07.294Z,99570.02
2019-04-05T04:58:34.910Z,99566.31
2019-04-05T05:01:02.344Z,99566.70
2019-04-05T05:03:29.736Z,99562.88
2019-04-05T05:05:57.032Z,99562.88
2019-04-05T05:08:25.146Z,99564.18
2019-04-05T05:10:52.955Z,99564.06
2019-04-05T05:13:20.725Z,99566.92
2019-04-05T05:15:48.399Z,99568.94
2019-04-05T05:18:15.911Z,99573.81
2019-04-05T05:20:44.036Z,99573.80
2019-04-05T05:23:12.832Z,99569.89
2019-04-05T05:25:40.584Z,99569.87
2019-04-05T05:28:32.704Z,99575.33
2019-04-05T05:31:09.760Z,99576.85
2019-04-05T05:34:30.240Z,99573.77
2019-04-05T05:41:04.316Z,99576.61
2019-04-05T05:47:05.993Z,99570.23
2019-04-05T05:50:15.798Z,99570.09
2019-04-05T05:52:49.480Z,99576.27
2019-04-05T06:02:09.422Z,99594.92
2019-04-05T06:08:12.047Z,99596.52
2019-04-05T06:10:49.676Z,99592.46
2019-04-05T06:13:26.200Z,99595.20
2019-04-05T06:19:14.258Z,99597.52
2019-04-05T06:25:19.096Z,99604.53
2019-04-05T06:30:39.639Z,99609.41
2019-04-05T06:33:31.696Z,99609.20
2019-04-05T06:36:08.909Z,99611.21
2019-04-05T06:38:49.729Z,99610.52
2019-04-05T06:41:50.482Z,99614.80
2019-04-05T06:44:36.714Z,99605.11
2019-04-05T06:47:19.672Z,99610.02
2019-04-05T06:50:22.716Z,99608.81
2019-04-05T06:52:52.599Z,99615.14
2019-04-05T06:55:28.820Z,99611.44
2019-04-05T06:58:02.383Z,99613.67
2019-04-05T07:01:04.054Z,99614.98
2019-04-05T07:03:47.307Z,99623.12
2019-04-05T07:06:24.398Z,99621.61
2019-04-05T07:08:54.192Z,99617.91
2019-04-05T07:11:23.728Z,99615.25
2019-04-05T07:13:51.972Z,99613.12
2019-04-05T07:16:22.091Z,99614.78
2019-04-05T07:18:55.870Z,99611.69
2019-04-05T07:21:22.995Z,99614.05
2019-04-05T07:23:53.154Z,99613.92
2019-04-05T07:26:27.959Z,99612.80
2019-04-05T07:28:57.297Z,99611.93
2019-04-05T07:31:29.270Z,99610.00
2019-04-05T07:33:58.990Z,99610.30
2019-04-05T07:37:01.486Z,99620.39
2019-04-05T07:39:28.857Z,99623.19
2019-04-05T07:41:56.116Z,99618.95
2019-04-05T07:44:23.333Z,99627.34
2019-04-05T07:46:50.537Z,99626.41
2019-04-05T07:49:18.013Z,99624.42
2019-04-05T07:51:45.308Z,99622.23
2019-04-05T07:54:12.495Z,99617.72
2019-04-05T07:56:40.015Z,99619.48
2019-04-05T07:59:07.793Z,99623.95
2019-04-05T08:01:34.978Z,99624.77
2019-04-05T08:04:02.243Z,99620.63
2019-04-05T08:06:30.603Z,99621.77
2019-04-05T08:09:11.852Z,99626.27
2019-04-05T08:11:40.976Z,99620.41
2019-04-05T08:14:09.683Z,99618.19
2019-04-05T08:16:36.886Z,99626.61
2019-04-05T08:19:04.422Z,99626.66
2019-04-05T08:21:31.583Z,99619.33
2019-04-05T08:23:58.794Z,99617.45
2019-04-05T08:26:25.957Z,99616.02
2019-04-05T08:28:53.192Z,99620.17
2019-04-05T08:31:20.710Z,99618.11
2019-04-05T08:33:47.903Z,99624.06
2019-04-05T08:36:15.085Z,99617.69
2019-04-05T08:38:42.661Z,99622.16
2019-04-05T08:41:09.971Z,99621.44
2019-04-05T08:43:37.161Z,99620.52
2019-04-05T08:46:04.553Z,99625.52
2019-04-05T08:48:31.974Z,99627.59
2019-04-05T08:50:59.061Z,99631.14
2019-04-05T08:53:26.510Z,99634.23
2019-04-05T08:55:53.648Z,99629.55
2019-04-05T08:58:32.773Z,99633.75
2019-04-05T09:00:49.987Z,99630.16
2019-04-05T09:03:17.157Z,99630.23
2019-04-05T09:05:44.242Z,99626.94
2019-04-05T09:08:11.443Z,99627.57
2019-04-05T09:10:38.897Z,99631.22
2019-04-05T09:13:06.946Z,99635.71
2019-04-05T09:15:34.510Z,99631.26
2019-04-05T09:18:01.606Z,99631.21
2019-04-05T09:20:29.251Z,99630.23
2019-04-05T09:22:56.449Z,99637.47
2019-04-05T09:25:23.601Z,99646.00
2019-04-05T09:27:50.867Z,99636.95
2019-04-05T09:30:18.182Z,99642.05
2019-04-05T09:32:45.762Z,99638.61
2019-04-05T09:35:12.957Z,99638.55
2019-04-05T09:37:40.230Z,99642.05
2019-04-05T09:40:09.498Z,99633.18
2019-04-05T09:42:36.965Z,99640.30
2019-04-05T09:45:04.844Z,99633.66
2019-04-05T09:47:32.233Z,99635.59
2019-04-05T09:49:59.423Z,99634.65
2019-04-05T09:52:27.234Z,99638.31
2019-04-05T09:54:54.659Z,99631.72
2019-04-05T09:57:21.861Z,99632.72
2019-04-05T09:59:49.049Z,99626.28
2019-04-05T10:02:16.320Z,99622.59
2019-04-05T10:04:43.495Z,99638.62
2019-04-05T10:07:10.725Z,99636.39
2019-04-05T10:09:37.956Z,99636.40
2019-04-05T10:12:05.127Z,99631.34
2019-04-05T10:14:32.322Z,99631.89
2019-04-05T10:16:59.475Z,99630.51
2019-04-05T10:19:26.626Z,99634.48
2019-04-05T10:21:53.822Z,99633.41
2019-04-05T10:24:21.037Z,99639.87
2019-04-05T10:26:48.200Z,99634.19
2019-04-05T10:29:15.447Z,99632.70
2019-04-05T10:31:42.621Z,99628.64
2019-04-05T10:34:09.892Z,99633.72
2019-04-05T10:36:37.104Z,99627.83
2019-04-05T10:39:06.864Z,99636.03
2019-04-05T10:41:35.870Z,99636.05
2019-04-05T10:44:05.218Z,99634.66
2019-04-05T10:46:32.765Z,99625.94
2019-04-05T10:49:00.001Z,99619.41
2019-04-05T10:51:27.211Z,99608.83
2019-04-05T10:53:54.753Z,99604.01
2019-04-05T10:56:21.953Z,99604.44
2019-04-05T10:58:49.204Z,99603.64
2019-04-05T11:01:16.387Z,99599.31
2019-04-05T11:03:43.866Z,99605.49
2019-04-05T11:06:11.400Z,99604.35
2019-04-05T11:08:38.821Z,99604.77
2019-04-05T11:11:06.044Z,99601.84
2019-04-05T11:13:33.313Z,99607.34
2019-04-05T11:16:02.016Z,99604.07
2019-04-05T11:18:30.658Z,99602.83
2019-04-05T11:20:58.754Z,99605.35
2019-04-05T11:23:26.269Z,99594.98
2019-04-05T11:25:53.454Z,99598.29
2019-04-05T11:28:20.707Z,99602.21
2019-04-05T11:30:47.928Z,99604.81
2019-04-05T11:33:15.403Z,99598.19
2019-04-05T11:35:42.913Z,99589.73
2019-04-05T11:38:11.104Z,99593.19
2019-04-05T11:40:38.600Z,99591.06
2019-04-05T11:43:05.797Z,99593.40
2019-04-05T11:45:33.496Z,99596.20
2019-04-05T11:48:02.273Z,99594.73
2019-04-05T11:50:34.846Z,99592.86
2019-04-05T11:52:58.848Z,99590.84
2019-04-05T11:55:35.359Z,99581.38
2019-04-05T11:58:03.922Z,99582.72
2019-04-05T12:00:38.706Z,99580.21
2019-04-05T12:03:09.689Z,99589.09
2019-04-05T12:05:36.828Z,99582.05
2019-04-05T12:08:04.056Z,99588.19
2019-04-05T12:10:32.087Z,99587.27
2019-04-05T12:12:59.448Z,99580.53
2019-04-05T12:15:26.555Z,99587.33
2019-04-05T12:17:53.640Z,99576.84
2019-04-05T12:20:22.181Z,99573.27
2019-04-05T12:22:52.346Z,99561.39
2019-04-05T12:25:18.448Z,99564.08
2019-04-05T12:27:45.981Z,99559.63
2019-04-05T12:30:16.431Z,99566.42
2019-04-05T12:32:43.763Z,99567.67
2019-04-05T12:35:16.496Z,99560.42
2019-04-05T12:37:50.629Z,99558.51
2019-04-05T12:40:14.893Z,99569.41
2019-04-05T12:42:43.458Z,99568.95
2019-04-05T12:45:14.698Z,99562.50
2019-04-05T12:47:39.964Z,99556.19
2019-04-05T12:50:08.052Z,99559.41
2019-04-05T12:52:35.243Z,99548.67
2019-04-05T12:55:04.239Z,99552.76
2019-04-05T12:57:31.437Z,99558.09
2019-04-05T12:59:58.639Z,99553.88
2019-04-05T13:02:33.300Z,99555.68
2019-04-05T13:04:55.000Z,99545.20
2019-04-05T13:07:22.786Z,99551.64
2019-04-05T13:09:53.812Z,99545.27
2019-04-05T13:12:19.705Z,99539.01
2019-04-05T13:14:47.155Z,99536.13
2019-04-05T13:17:14.367Z,99538.45
2019-04-05T13:19:41.546Z,99547.56
2019-04-05T13:22:08.861Z,99546.08
2019-04-05T13:24:39.519Z,99547.62
2019-04-05T13:27:05.261Z,99549.39
2019-04-05T13:29:32.457Z,99547.46
2019-04-05T13:31:59.684Z,99547.06
2019-04-05T13:34:26.859Z,99546.76
2019-04-05T13:36:54.097Z,99548.34
2019-04-05T13:39:21.270Z,99541.47
2019-04-05T13:41:48.523Z,99543.96
2019-04-05T13:44:15.723Z,99537.60
2019-04-05T13:46:43.087Z,99539.26
2019-04-05T13:49:10.947Z,99535.56
2019-04-05T13:51:41.629Z,99533.69
2019-04-05T13:54:10.689Z,99532.70
2019-04-05T13:56:36.995Z,99528.83
2019-04-05T13:59:04.341Z,99530.14
2019-04-05T14:01:31.507Z,99523.09
2019-04-05T14:03:58.985Z,99524.53
2019-04-05T14:06:26.179Z,99522.43
2019-04-05T14:08:53.363Z,99515.64
2019-04-05T14:11:20.550Z,99521.14
2019-04-05T14:13:47.800Z,99515.67
2019-04-05T14:16:14.975Z,99516.68
2019-04-05T14:18:45.705Z,99520.50
2019-04-05T14:21:11.333Z,99515.50
2019-04-05T14:23:38.607Z,99517.70
2019-04-05T14:26:06.095Z,99509.19
2019-04-05T14:28:34.152Z,99515.97
2019-04-05T14:31:02.860Z,99513.10
2019-04-05T14:33:30.198Z,99511.98
2019-04-05T14:35:57.312Z,99507.73
2019-04-05T14:38:24.538Z,99510.23
2019-04-05T14:40:51.711Z,99511.65
2019-04-05T14:43:21.256Z,99499.80
2019-04-05T14:45:47.909Z,99499.63
2019-04-05T14:48:15.289Z,99499.97
2019-04-05T14:50:42.408Z,99498.64
2019-04-05T14:53:09.570Z,99501.48
2019-04-05T14:55:36.752Z,99504.52
2019-04-05T14:58:06.018Z,99504.08
2019-04-05T15:00:33.184Z,99500.26
2019-04-05T15:03:00.351Z,99500.56
2019-04-05T15:05:27.594Z,99496.08
2019-04-05T15:07:55.148Z,99499.55
2019-04-05T15:10:24.870Z,99505.44
2019-04-05T15:12:51.412Z,99495.44
2019-04-05T15:15:18.469Z,99502.91
2019-04-05T15:17:48.142Z,99495.47
2019-04-05T15:20:14.822Z,99500.88
2019-04-05T15:22:42.318Z,99498.91
2019-04-05T15:25:10.178Z,99500.88
2019-04-05T15:27:37.426Z,99493.44
2019-04-05T15:30:05.252Z,99495.16
2019-04-05T15:32:33.282Z,99490.09
2019-04-05T15:35:00.467Z,99494.38
2019-04-05T15:37:31.625Z,99497.53
2019-04-05T15:39:58.625Z,99500.61
2019-04-05T15:42:26.325Z,99496.70
2019-04-05T15:44:53.481Z,99498.59
2019-04-05T15:47:23.242Z,99493.86
2019-04-05T15:49:51.824Z,99491.86
2019-04-05T15:52:19.349Z,99492.91
2019-04-05T15:54:46.650Z,99481.83
2019-04-05T15:57:13.858Z,99479.13
2019-04-05T15:59:41.046Z,99478.49
2019-04-05T16:02:11.371Z,99480.75
2019-04-05T16:04:39.305Z,99482.75
2019-04-05T16:07:06.451Z,99486.39
2019-04-05T16:09:33.635Z,99487.71
2019-04-05T16:12:01.161Z,99500.55
2019-04-05T16:14:28.696Z,99496.25
2019-04-05T16:16:56.198Z,99500.23
2019-04-05T16:19:23.381Z,99501.44
2019-04-05T16:21:50.562Z,99506.90
2019-04-05T16:24:18.057Z,99501.77
2019-04-05T16:26:45.288Z,99506.05
2019-04-05T16:29:12.443Z,99505.92
2019-04-05T16:31:39.635Z,99507.58
2019-04-05T16:34:06.823Z,99506.58
2019-04-05T16:36:33.997Z,99510.53
2019-04-05T16:39:01.512Z,99505.05
2019-04-05T16:41:28.900Z,99509.13
2019-04-05T16:43:56.095Z,99506.09
2019-04-05T16:46:23.569Z,99504.83
2019-04-05T16:48:50.768Z,99508.23
2019-04-05T16:51:17.930Z,99506.57
2019-04-05T16:54:00.679Z,99505.81
2019-04-05T16:56:27.856Z,99501.11
2019-04-05T16:58:55.063Z,99508.02
2019-04-05T17:01:27.304Z,99512.47
2019-04-05T17:03:51.647Z,99512.73
2019-04-05T17:06:19.974Z,99513.23
2019-04-05T17:08:47.259Z,99519.73
2019-04-05T17:11:14.421Z,99517.45
2019-04-05T17:13:41.633Z,99519.61
2019-04-05T17:16:08.843Z,99524.66
2019-04-05T17:18:36.027Z,99520.58
2019-04-05T17:21:03.234Z,99524.52
2019-04-05T17:23:32.979Z,99532.55
2019-04-05T17:25:59.462Z,99525.41
2019-04-05T17:28:26.640Z,99525.20
2019-04-05T17:30:53.860Z,99525.57
2019-04-05T17:33:20.916Z,99527.84
2019-04-05T17:35:47.978Z,99531.92
2019-04-05T17:38:15.285Z,99527.14
2019-04-05T17:40:42.507Z,99534.34
2019-04-05T17:43:09.710Z,99532.18
2019-04-05T17:45:37.446Z,99536.63
2019-04-05T17:48:04.515Z,99530.82
2019-04-05T17:50:33.973Z,99540.28
2019-04-05T17:53:12.258Z,99536.28
2019-04-05T17:55:31.703Z,99534.63
2019-04-05T17:58:01.227Z,99535.00
2019-04-05T18:00:28.473Z,99538.14
2019-04-05T18:02:55.571Z,99535.98
2019-04-05T18:05:22.765Z,99544.63
2019-04-05T18:07:50.243Z,99548.72
2019-04-05T18:10:17.429Z,99547.79
2019-04-05T18:12:44.907Z,99553.55
2019-04-05T18:15:12.161Z,99557.73
2019-04-05T18:17:39.239Z,99562.44
2019-04-05T18:20:09.606Z,99553.52
2019-04-05T18:22:36.185Z,99553.93
2019-04-05T18:25:05.140Z,99553.80
2019-04-05T18:27:32.357Z,99558.68
2019-04-05T18:29:59.568Z,99557.75
2019-04-05T18:32:27.092Z,99557.22
2019-04-05T18:34:54.286Z,99560.75
2019-04-05T18:37:21.501Z,99558.77
2019-04-05T18:39:48.711Z,99559.80
2019-04-05T18:42:15.919Z,99558.33
2019-04-05T18:44:43.152Z,99567.41
2019-04-05T18:47:10.308Z,99563.75
2019-04-05T18:49:37.760Z,99562.28
2019-04-05T18:52:04.949Z,99568.84
2019-04-05T18:54:32.132Z,99572.79
2019-04-05T18:56:59.864Z,99575.30
2019-04-05T18:59:27.417Z,99585.57
2019-04-05T19:01:54.590Z,99578.44
2019-04-05T19:04:22.075Z,99580.84
2019-04-05T19:06:49.372Z,99581.06
2019-04-05T19:09:16.935Z,99580.62
2019-04-05T19:11:44.127Z,99580.15
2019-04-05T19:14:11.454Z,99581.12
2019-04-05T19:16:38.980Z,99580.05
2019-04-05T19:19:06.127Z,99579.36
2019-04-05T19:21:33.436Z,99581.06
2019-04-05T19:24:01.302Z,99578.33
2019-04-05T19:26:28.486Z,99579.05
2019-04-05T19:28:55.659Z,99576.78
2019-04-05T19:48:46.943Z,99573.36
2019-04-05T19:51:14.157Z,99572.73
2019-04-05T19:53:41.521Z,99564.62
2019-04-05T19:56:08.677Z,99559.94
2019-04-05T19:58:35.906Z,99557.31
2019-04-05T20:01:03.121Z,99558.40
2019-04-05T20:03:30.261Z,99559.72
2019-04-05T20:05:57.371Z,99558.28
2019-04-05T20:08:24.566Z,99548.93
2019-04-05T20:10:51.770Z,99544.52
2019-04-05T20:13:18.953Z,99551.78
2019-04-05T20:15:46.166Z,99551.78
2019-04-05T20:18:13.529Z,99550.69
2019-04-05T20:20:40.657Z,99552.50
2019-04-05T20:23:07.823Z,99557.59
2019-04-05T20:25:35.020Z,99551.53
2019-04-05T20:28:02.212Z,99554.16
2019-04-05T20:30:29.712Z,99558.45
2019-04-05T20:32:56.876Z,99553.41
2019-04-05T20:35:24.004Z,99561.30
2019-04-05T20:37:51.521Z,99561.77
2019-04-05T20:40:19.046Z,99571.52
2019-04-05T20:43:10.296Z,99571.80
2019-04-05T20:45:37.497Z,99568.55
2019-04-05T20:48:04.897Z,99568.42
2019-04-05T20:50:32.007Z,99566.61
2019-04-05T20:52:59.194Z,99563.86
2019-04-05T20:55:26.429Z,99566.37
2019-04-05T20:57:53.604Z,99564.83
2019-04-05T21:00:21.106Z,99567.52
2019-04-05T21:02:48.624Z,99570.12
2019-04-05T21:05:24.723Z,99571.78
2019-04-05T21:07:44.870Z,99570.81
2019-04-05T21:10:12.163Z,99572.41
2019-04-05T21:12:39.364Z,99574.81
2019-04-05T21:15:06.846Z,99580.76
2019-04-05T21:17:34.071Z,99579.45
2019-04-05T21:20:01.275Z,99584.25
2019-04-05T21:22:28.445Z,99581.78
2019-04-05T21:24:55.958Z,99585.34
2019-04-05T21:27:23.147Z,99588.94
2019-04-05T21:29:50.661Z,99586.41
2019-04-05T21:32:17.855Z,99587.10
2019-04-05T21:34:45.076Z,99590.08
2019-04-05T21:37:12.614Z,99587.80
2019-04-05T21:39:39.839Z,99592.80
2019-04-05T21:42:07.181Z,99591.70
2019-04-05T21:44:34.362Z,99592.28
2019-04-05T21:47:01.905Z,99587.93
2019-04-05T21:49:29.368Z,99586.34
2019-04-05T21:51:56.878Z,99590.63
2019-04-05T21:54:24.056Z,99592.78
2019-04-05T21:56:51.713Z,99585.12
2019-04-05T21:59:18.865Z,99592.28
2019-04-05T22:01:46.423Z,99596.84
2019-04-05T22:04:13.597Z,99598.50
2019-04-05T22:06:40.811Z,99590.03
2019-04-05T22:09:08.586Z,99584.40
2019-04-05T22:11:35.787Z,99587.25
2019-04-05T22:14:02.929Z,99581.17
2019-04-05T22:16:30.113Z,99583.05
2019-04-05T22:18:57.596Z,99588.78
2019-04-05T22:21:24.756Z,99587.81
2019-04-05T22:23:51.926Z,99585.34
2019-04-05T22:26:19.105Z,99592.38
2019-04-05T22:28:46.257Z,99592.25
2019-04-05T22:31:13.460Z,99592.03
2019-04-05T22:33:40.633Z,99586.09
2019-04-05T22:36:07.994Z,99584.27
2019-04-05T22:38:35.179Z,99584.90
2019-04-05T22:41:02.579Z,99586.62
2019-04-05T22:43:29.742Z,99583.67
2019-04-05T22:45:56.932Z,99582.52
2019-04-05T22:48:24.128Z,99579.66
2019-04-05T22:50:51.742Z,99579.16
2019-04-05T22:53:18.904Z,99582.64
2019-04-05T22:55:46.090Z,99582.64
2019-04-05T22:58:13.281Z,99576.91
2019-04-05T23:00:40.440Z,99572.70
2019-04-05T23:03:07.534Z,99568.47
2019-04-05T23:05:34.593Z,99568.34
2019-04-05T23:08:02.068Z,99564.13
2019-04-05T23:10:29.524Z,99557.31
2019-04-05T23:12:56.720Z,99563.59
2019-04-05T23:15:23.780Z,99561.47
2019-04-05T23:17:51.191Z,99558.22
2019-04-05T23:20:18.375Z,99563.12
2019-04-05T23:22:45.515Z,99556.56
2019-04-05T23:25:21.490Z,99560.38
2019-04-05T23:27:41.772Z,99566.31
2019-04-05T23:30:09.397Z,99571.07
2019-04-05T23:32:36.582Z,99566.31
2019-04-05T23:35:04.046Z,99561.19
2019-04-05T23:37:31.164Z,99565.81
2019-04-05T23:39:58.391Z,99565.22
2019-04-05T23:42:25.512Z,99567.91
2019-04-05T23:44:52.735Z,99570.88
2019-04-05T23:47:20.275Z,99567.78
2019-04-05T23:49:47.476Z,99565.63
2019-04-05T23:52:14.656Z,99566.81
2019-04-05T23:54:41.838Z,99567.66
2019-04-05T23:57:09.341Z,99570.00
2019-04-05T23:59:36.496Z,99567.25
